createdAt,value
2023-03-29T00:02:32.067Z,1.60
2023-03-29T00:05:05.321Z,1.58
2023-03-29T00:07:33.813Z,1.58
2023-03-29T00:10:02.652Z,1.67
2023-03-29T00:12:31.440Z,1.70
2023-03-29T00:14:58.672Z,1.42
2023-03-29T00:17:26.188Z,1.38
2023-03-29T00:19:53.480Z,1.50
2023-03-29T00:22:21.600Z,1.33
2023-03-29T00:24:49.399Z,1.50
2023-03-29T00:27:16.938Z,2.33
2023-03-29T00:29:44.182Z,1.60
2023-03-29T00:32:11.432Z,2.10
2023-03-29T00:34:38.883Z,2.33
2023-03-29T00:37:09.574Z,1.40
2023-03-29T00:39:37.421Z,1.77
2023-03-29T00:42:04.764Z,1.58
2023-03-29T00:50:29.920Z,1.05
2023-03-29T00:53:05.193Z,1.50
2023-03-29T00:55:38.365Z,1.55
2023-03-29T00:58:10.326Z,1.75
2023-03-29T01:00:42.398Z,1.30
2023-03-29T01:03:14.418Z,1.60
2023-03-29T01:05:45.347Z,1.42
2023-03-29T01:08:18.477Z,1.45
2023-03-29T01:10:53.255Z,1.52
2023-03-29T01:13:27.472Z,1.80
2023-03-29T01:15:56.074Z,1.40
2023-03-29T01:18:23.385Z,1.73
2023-03-29T01:27:06.707Z,1.23
2023-03-29T01:29:39.703Z,1.60
2023-03-29T01:32:19.983Z,1.25
2023-03-29T01:37:34.440Z,1.45
2023-03-29T01:40:01.682Z,1.88
2023-03-29T01:50:38.494Z,1.48
2023-03-29T01:53:11.765Z,1.48
2023-03-29T01:55:41.016Z,1.20
2023-03-29T01:58:10.205Z,1.38
2023-03-29T02:00:38.837Z,1.60
2023-03-29T02:03:09.058Z,1.50
2023-03-29T02:05:38.134Z,1.48
2023-03-29T02:08:07.984Z,1.27
2023-03-29T02:10:35.589Z,1.83
2023-03-29T02:13:04.578Z,1.70
2023-03-29T02:15:33.973Z,1.60
2023-03-29T02:18:04.324Z,1.70
2023-03-29T02:20:39.283Z,1.50
2023-03-29T02:23:16.110Z,1.40
2023-03-29T02:25:45.826Z,1.20
2023-03-29T02:28:13.770Z,1.70
2023-03-29T02:33:28.304Z,1.23
2023-03-29T02:36:02.107Z,1.45
2023-03-29T02:38:30.035Z,1.02
2023-03-29T02:40:59.790Z,1.38
2023-03-29T02:43:28.481Z,1.60
2023-03-29T02:45:56.263Z,1.50
2023-03-29T02:48:25.779Z,1.33
2023-03-29T02:50:56.492Z,1.58
2023-03-29T02:53:28.764Z,1.70
2023-03-29T02:55:56.197Z,1.80
2023-03-29T02:58:26.802Z,1.90
2023-03-29T03:00:54.328Z,1.48
2023-03-29T03:03:22.307Z,1.10
2023-03-29T03:05:52.647Z,1.63
2023-03-29T03:08:20.789Z,1.60
2023-03-29T03:10:48.742Z,1.77
2023-03-29T03:13:16.683Z,1.77
2023-03-29T03:15:49.179Z,1.60
2023-03-29T03:18:16.997Z,1.80
2023-03-29T03:20:46.808Z,1.70
2023-03-29T03:23:14.179Z,1.35
2023-03-29T03:25:41.647Z,1.90
2023-03-29T03:28:08.976Z,1.40
2023-03-29T03:30:36.234Z,1.52
2023-03-29T03:33:23.525Z,1.88
2023-03-29T03:36:11.514Z,1.80
2023-03-29T03:38:39.111Z,1.65
2023-03-29T03:41:07.499Z,1.63
2023-03-29T03:43:35.537Z,1.35
2023-03-29T03:46:03.010Z,1.70
2023-03-29T03:48:30.912Z,1.20
2023-03-29T03:51:10.437Z,1.15
2023-03-29T03:53:38.209Z,1.30
2023-03-29T03:56:26.059Z,1.48
2023-03-29T03:59:13.147Z,1.45
2023-03-29T04:01:50.829Z,1.90
2023-03-29T04:04:21.380Z,1.40
2023-03-29T04:07:08.830Z,1.70
2023-03-29T04:09:55.946Z,1.80
2023-03-29T04:12:43.151Z,1.27
2023-03-29T04:15:12.325Z,1.42
2023-03-29T04:17:45.443Z,1.65
2023-03-29T04:20:32.590Z,1.60
2023-03-29T04:23:00.825Z,1.80
2023-03-29T04:25:29.926Z,1.48
2023-03-29T04:28:17.077Z,1.55
2023-03-29T04:31:03.464Z,1.55
2023-03-29T04:33:46.932Z,1.30
2023-03-29T04:36:16.265Z,1.42
2023-03-29T04:38:47.308Z,1.48
2023-03-29T04:41:15.830Z,1.20
2023-03-29T04:44:03.031Z,2.50
2023-03-29T04:46:32.622Z,1.75
2023-03-29T04:49:19.894Z,1.58
2023-03-29T04:51:51.024Z,1.75
2023-03-29T04:54:22.030Z,1.73
2023-03-29T04:57:09.557Z,1.25
2023-03-29T04:59:55.985Z,1.73
2023-03-29T05:02:44.683Z,1.08
2023-03-29T05:05:14.739Z,1.65
2023-03-29T05:07:42.958Z,1.23
2023-03-29T05:10:11.762Z,1.02
2023-03-29T05:12:39.912Z,1.30
2023-03-29T05:15:08.503Z,1.48
2023-03-29T05:17:36.668Z,1.50
2023-03-29T05:20:11.652Z,1.23
2023-03-29T05:22:40.573Z,1.20
2023-03-29T05:25:13.596Z,1.30
2023-03-29T05:27:43.579Z,1.33
2023-03-29T05:30:12.587Z,1.40
2023-03-29T05:32:48.324Z,1.17
2023-03-29T05:35:19.220Z,1.10
2023-03-29T05:37:47.506Z,1.30
2023-03-29T05:40:14.981Z,1.77
2023-03-29T05:43:03.054Z,0.93
2023-03-29T05:45:30.539Z,1.35
2023-03-29T05:47:58.405Z,1.20
2023-03-29T05:50:26.240Z,1.30
2023-03-29T05:52:55.525Z,1.40
2023-03-29T05:55:23.963Z,1.33
2023-03-29T05:57:51.838Z,0.98
2023-03-29T06:00:26.101Z,1.20
2023-03-29T06:03:17.694Z,1.15
2023-03-29T06:05:50.034Z,1.17
2023-03-29T06:08:18.451Z,1.27
2023-03-29T06:11:02.427Z,1.30
2023-03-29T06:13:52.054Z,1.33
2023-03-29T06:16:20.157Z,1.10
2023-03-29T06:18:48.235Z,1.10
2023-03-29T06:21:15.755Z,1.00
2023-03-29T06:23:43.491Z,1.50
2023-03-29T06:26:10.927Z,1.15
2023-03-29T06:28:39.510Z,1.15
2023-03-29T06:31:07.106Z,0.90
2023-03-29T06:33:39.119Z,1.40
2023-03-29T06:36:17.123Z,1.08
2023-03-29T06:38:46.204Z,0.93
2023-03-29T06:41:21.795Z,1.10
2023-03-29T06:44:09.220Z,0.93
2023-03-29T06:46:45.808Z,0.85
2023-03-29T06:49:15.038Z,1.30
2023-03-29T06:51:54.256Z,1.40
2023-03-29T06:54:21.733Z,1.00
2023-03-29T06:56:59.833Z,1.50
2023-03-29T06:59:29.136Z,0.93
2023-03-29T07:01:59.992Z,1.30
2023-03-29T07:04:46.330Z,0.85
2023-03-29T07:08:05.960Z,1.00
2023-03-29T07:10:45.989Z,1.00
2023-03-29T07:13:33.277Z,1.00
2023-03-29T07:16:04.236Z,1.33
2023-03-29T07:18:41.874Z,1.25
2023-03-29T07:21:13.518Z,1.40
2023-03-29T07:23:41.269Z,1.10
2023-03-29T07:26:08.929Z,1.17
2023-03-29T07:28:37.732Z,0.90
2023-03-29T07:31:08.154Z,1.42
2023-03-29T07:33:41.305Z,1.15
2023-03-29T07:36:10.311Z,0.95
2023-03-29T07:38:38.195Z,1.00
2023-03-29T07:41:12.614Z,1.08
2023-03-29T07:43:47.149Z,0.80
2023-03-29T07:46:18.013Z,0.88
2023-03-29T07:48:45.501Z,0.77
2023-03-29T07:51:15.468Z,1.20
2023-03-29T07:53:45.936Z,0.90
2023-03-29T07:56:30.419Z,1.20
2023-03-29T07:59:17.575Z,1.40
2023-03-29T08:01:50.543Z,1.05
2023-03-29T08:04:26.782Z,1.05
2023-03-29T08:07:17.689Z,1.13
2023-03-29T08:10:09.300Z,0.88
2023-03-29T08:12:52.613Z,0.85
2023-03-29T08:15:26.710Z,1.48
2023-03-29T08:17:54.781Z,1.00
2023-03-29T08:20:22.859Z,1.33
2023-03-29T08:22:55.067Z,1.40
2023-03-29T08:25:33.613Z,0.80
2023-03-29T08:28:01.216Z,1.27
2023-03-29T08:30:40.559Z,1.00
2023-03-29T08:33:09.088Z,1.20
2023-03-29T08:35:37.162Z,1.30
2023-03-29T08:38:24.392Z,1.25
2023-03-29T08:40:52.187Z,1.52
2023-03-29T08:48:36.837Z,0.95
2023-03-29T08:51:30.476Z,1.23
2023-03-29T08:54:02.795Z,1.20
2023-03-29T08:56:45.728Z,1.00
2023-03-29T08:59:29.253Z,1.23
2023-03-29T09:01:58.702Z,1.38
2023-03-29T09:04:30.701Z,1.40
2023-03-29T09:07:10.649Z,1.55
2023-03-29T09:09:43.377Z,1.25
2023-03-29T09:12:43.920Z,1.35
2023-03-29T09:15:20.606Z,1.42
2023-03-29T09:23:44.665Z,1.50
2023-03-29T09:29:26.381Z,1.33
2023-03-29T09:31:55.337Z,2.45
2023-03-29T09:34:29.460Z,1.55
2023-03-29T09:37:22.143Z,1.90
2023-03-29T09:39:53.327Z,2.40
2023-03-29T09:42:24.758Z,2.13
2023-03-29T09:44:54.766Z,2.08
2023-03-29T09:50:30.231Z,2.33
2023-03-29T09:52:59.798Z,1.95
2023-03-29T09:55:32.535Z,2.38
2023-03-29T09:58:13.497Z,1.92
2023-03-29T10:00:45.861Z,2.05
2023-03-29T10:03:23.352Z,2.47
2023-03-29T10:06:00.488Z,2.55
2023-03-29T10:08:31.495Z,3.00
2023-03-29T10:11:02.404Z,2.13
2023-03-29T10:13:32.511Z,2.10
2023-03-29T10:18:42.069Z,3.10
2023-03-29T10:21:17.662Z,3.10
2023-03-29T10:23:45.018Z,2.72
2023-03-29T10:26:25.488Z,2.72
2023-03-29T10:28:55.053Z,2.45
2023-03-29T10:31:23.681Z,2.33
2023-03-29T10:33:54.251Z,3.03
2023-03-29T10:36:22.701Z,3.00
2023-03-29T10:38:52.231Z,2.50
2023-03-29T10:41:22.014Z,3.15
2023-03-29T10:43:51.419Z,2.53
2023-03-29T10:49:06.399Z,2.90
2023-03-29T10:51:34.720Z,2.28
2023-03-29T10:54:03.631Z,3.28
2023-03-29T10:56:59.044Z,2.78
2023-03-29T11:05:15.933Z,2.97
2023-03-29T11:08:10.800Z,3.58
2023-03-29T11:16:20.360Z,4.03
2023-03-29T11:19:27.415Z,2.72
2023-03-29T11:22:34.293Z,2.80
2023-03-29T11:25:15.006Z,3.50
2023-03-29T11:30:35.399Z,3.08
2023-03-29T11:35:48.941Z,2.63
2023-03-29T11:38:23.786Z,2.60
2023-03-29T11:46:31.756Z,3.15
2023-03-29T11:49:04.835Z,2.47
2023-03-29T11:51:36.552Z,2.50
2023-03-29T11:56:45.383Z,3.22
2023-03-29T11:59:18.986Z,2.75
2023-03-29T12:01:52.355Z,3.03
2023-03-29T12:04:26.215Z,3.15
2023-03-29T12:07:14.235Z,3.40
2023-03-29T12:12:25.430Z,3.50
2023-03-29T12:15:04.389Z,3.92
2023-03-29T12:17:37.834Z,3.35
2023-03-29T12:22:47.556Z,4.05
2023-03-29T12:25:19.295Z,3.70
2023-03-29T12:30:47.162Z,4.80
2023-03-29T12:36:18.898Z,3.03
2023-03-29T12:39:11.113Z,3.28
2023-03-29T12:44:59.216Z,3.15
2023-03-29T12:47:34.473Z,3.70
2023-03-29T12:50:02.157Z,3.45
2023-03-29T12:52:35.226Z,3.55
2023-03-29T12:55:05.678Z,3.47
2023-03-29T12:57:42.973Z,4.10
2023-03-29T13:00:20.693Z,3.83
2023-03-29T13:05:31.363Z,3.95
2023-03-29T13:07:58.809Z,3.40
2023-03-29T13:13:17.991Z,4.40
2023-03-29T13:15:46.348Z,4.32
2023-03-29T13:21:17.525Z,3.58
2023-03-29T13:24:24.466Z,3.40
2023-03-29T13:29:55.709Z,4.65
2023-03-29T13:54:13.336Z,3.60
2023-03-29T13:57:02.192Z,4.63
2023-03-29T13:59:37.987Z,4.35
2023-03-29T14:02:06.704Z,4.55
2023-03-29T14:04:42.191Z,4.85
2023-03-29T14:07:12.930Z,4.60
2023-03-29T14:09:44.257Z,4.18
2023-03-29T14:12:13.806Z,4.63
2023-03-29T14:14:56.015Z,4.63
2023-03-29T14:17:26.095Z,4.68
2023-03-29T14:19:53.828Z,4.43
2023-03-29T14:22:21.774Z,5.00
2023-03-29T14:24:54.580Z,4.68
2023-03-29T14:27:22.399Z,4.65
2023-03-29T14:29:51.565Z,4.22
2023-03-29T14:32:27.690Z,5.05
2023-03-29T14:34:55.036Z,4.03
2023-03-29T14:37:25.563Z,5.35
2023-03-29T14:39:53.132Z,4.40
2023-03-29T14:42:25.500Z,4.13
2023-03-29T14:44:59.378Z,5.10
2023-03-29T14:47:29.887Z,5.22
2023-03-29T14:50:00.852Z,4.70
2023-03-29T14:52:31.302Z,5.45
2023-03-29T14:55:00.851Z,5.68
2023-03-29T14:57:33.509Z,5.07
2023-03-29T15:00:02.704Z,5.22
2023-03-29T15:02:34.085Z,5.30
2023-03-29T15:05:07.779Z,4.68
2023-03-29T15:07:38.101Z,5.13
2023-03-29T15:10:06.648Z,5.07
2023-03-29T15:12:34.391Z,5.00
2023-03-29T15:15:02.674Z,5.78
2023-03-29T15:17:47.645Z,5.45
2023-03-29T15:20:25.709Z,4.93
2023-03-29T15:23:04.846Z,5.18
2023-03-29T15:25:34.545Z,5.15
2023-03-29T15:28:01.979Z,5.35
2023-03-29T15:30:35.053Z,5.18
2023-03-29T15:33:20.111Z,4.95
2023-03-29T15:35:50.736Z,4.68
2023-03-29T15:38:19.772Z,5.78
2023-03-29T15:40:48.675Z,6.05
2023-03-29T15:43:15.964Z,5.03
2023-03-29T15:45:43.771Z,5.22
2023-03-29T15:48:16.597Z,6.03
2023-03-29T15:50:45.453Z,5.10
2023-03-29T15:53:15.772Z,5.50
2023-03-29T15:55:46.997Z,6.05
2023-03-29T15:58:16.907Z,6.40
2023-03-29T16:00:48.152Z,5.63
2023-03-29T16:03:16.453Z,5.75
2023-03-29T16:05:45.087Z,5.88
2023-03-29T16:08:13.472Z,6.13
2023-03-29T16:10:41.951Z,5.88
2023-03-29T16:13:13.599Z,5.85
2023-03-29T16:15:42.481Z,5.18
2023-03-29T16:18:09.969Z,5.15
2023-03-29T16:20:38.471Z,5.30
2023-03-29T16:23:09.718Z,5.50
2023-03-29T16:25:39.998Z,5.50
2023-03-29T16:28:09.382Z,5.95
2023-03-29T16:30:37.639Z,6.32
2023-03-29T16:33:08.742Z,5.82
2023-03-29T16:35:38.570Z,6.07
2023-03-29T16:38:06.864Z,6.28
2023-03-29T16:40:34.759Z,6.43
2023-03-29T16:43:02.999Z,5.63
2023-03-29T16:45:30.446Z,5.55
2023-03-29T16:47:57.791Z,6.72
2023-03-29T16:50:25.359Z,5.10
2023-03-29T16:52:53.833Z,5.85
2023-03-29T16:55:21.443Z,6.30
2023-03-29T16:57:52.237Z,5.13
2023-03-29T17:00:20.504Z,5.60
2023-03-29T17:02:51.600Z,5.68
2023-03-29T17:05:19.314Z,6.03
2023-03-29T17:07:47.156Z,4.57
2023-03-29T17:10:14.702Z,5.70
2023-03-29T17:12:42.027Z,5.57
2023-03-29T17:15:10.255Z,5.38
2023-03-29T17:17:38.869Z,6.15
2023-03-29T17:20:10.586Z,4.72
2023-03-29T17:22:38.977Z,6.38
2023-03-29T17:25:07.656Z,6.45
2023-03-29T17:27:35.826Z,6.43
2023-03-29T17:30:03.984Z,5.15
2023-03-29T17:32:32.507Z,5.80
2023-03-29T17:35:00.118Z,5.45
2023-03-29T17:37:29.133Z,5.65
2023-03-29T17:39:56.422Z,5.65
2023-03-29T17:42:23.713Z,5.50
2023-03-29T17:44:51.145Z,5.40
2023-03-29T17:47:18.396Z,6.18
2023-03-29T17:49:45.653Z,5.45
2023-03-29T17:52:12.942Z,6.47
2023-03-29T17:54:40.603Z,5.93
2023-03-29T17:57:07.954Z,5.80
2023-03-29T17:59:37.128Z,5.70
2023-03-29T18:02:06.760Z,5.63
2023-03-29T18:04:34.489Z,5.30
2023-03-29T18:07:01.942Z,6.18
2023-03-29T18:09:30.906Z,5.13
2023-03-29T18:11:58.389Z,5.22
2023-03-29T18:14:25.633Z,5.32
2023-03-29T18:16:53.041Z,5.18
2023-03-29T18:19:20.344Z,4.97
2023-03-29T18:21:47.934Z,5.22
2023-03-29T18:24:15.652Z,6.18
2023-03-29T18:26:42.942Z,5.25
2023-03-29T18:29:10.243Z,5.93
2023-03-29T18:31:37.592Z,5.43
2023-03-29T18:34:04.987Z,5.68
2023-03-29T18:36:32.560Z,5.25
2023-03-29T18:39:05.935Z,6.30
2023-03-29T18:41:34.980Z,6.03
2023-03-29T18:44:02.391Z,4.93
2023-03-29T18:46:31.453Z,6.10
2023-03-29T18:49:01.722Z,5.07
2023-03-29T18:51:29.615Z,6.82
2023-03-29T18:53:57.443Z,5.00
2023-03-29T18:56:24.899Z,5.38
2023-03-29T18:58:52.596Z,5.40
2023-03-29T19:01:20.022Z,5.32
2023-03-29T19:03:48.237Z,5.13
2023-03-29T19:06:15.768Z,5.35
2023-03-29T19:08:43.095Z,5.18
2023-03-29T19:11:14.468Z,5.60
2023-03-29T19:13:42.085Z,5.13
2023-03-29T19:16:09.632Z,5.63
2023-03-29T19:18:37.268Z,5.95
2023-03-29T19:21:04.555Z,5.20
2023-03-29T19:23:32.473Z,5.50
2023-03-29T19:26:03.006Z,5.80
2023-03-29T19:28:30.712Z,5.55
2023-03-29T19:31:00.534Z,6.10
2023-03-29T19:33:28.529Z,6.22
2023-03-29T19:35:55.953Z,6.57
2023-03-29T19:38:23.349Z,6.22
2023-03-29T19:40:51.893Z,6.88
2023-03-29T19:43:20.914Z,6.85
2023-03-29T19:45:49.575Z,6.72
2023-03-29T19:50:47.984Z,6.60
2023-03-29T19:53:15.307Z,8.23
2023-03-29T19:55:43.648Z,8.23
2023-03-29T19:58:11.054Z,7.00
2023-03-29T20:00:39.119Z,6.72
2023-03-29T20:03:10.167Z,6.97
2023-03-29T20:05:39.001Z,7.13
2023-03-29T20:08:07.260Z,7.15
2023-03-29T20:10:35.809Z,7.72
2023-03-29T20:13:03.452Z,7.05
2023-03-29T20:15:30.864Z,8.02
2023-03-29T20:17:59.865Z,7.10
2023-03-29T20:20:27.786Z,6.65
2023-03-29T20:22:58.671Z,6.85
2023-03-29T20:25:26.079Z,6.68
2023-03-29T20:27:53.587Z,7.53
2023-03-29T20:30:20.963Z,7.93
2023-03-29T20:32:48.356Z,7.78
2023-03-29T20:35:15.992Z,7.00
2023-03-29T20:37:43.252Z,6.55
2023-03-29T20:40:11.550Z,6.80
2023-03-29T20:42:39.871Z,6.70
2023-03-29T20:45:08.215Z,8.43
2023-03-29T20:47:55.603Z,8.70
2023-03-29T20:50:30.551Z,8.25
2023-03-29T20:53:02.348Z,8.27
2023-03-29T20:57:58.502Z,7.43
2023-03-29T21:00:27.561Z,8.65
2023-03-29T21:02:55.565Z,8.05
2023-03-29T21:05:23.148Z,8.30
2023-03-29T21:07:50.462Z,7.80
2023-03-29T21:10:17.832Z,7.03
2023-03-29T21:12:45.131Z,7.53
2023-03-29T21:15:13.754Z,7.50
2023-03-29T21:17:41.543Z,7.65
2023-03-29T21:20:10.487Z,7.93
2023-03-29T21:22:39.446Z,8.57
2023-03-29T21:25:09.265Z,8.50
2023-03-29T21:27:37.657Z,7.75
2023-03-29T21:30:06.717Z,7.72
2023-03-29T21:32:34.676Z,7.38
2023-03-29T21:35:02.030Z,8.10
2023-03-29T21:37:30.566Z,6.25
2023-03-29T21:39:58.156Z,8.25
2023-03-29T21:42:25.832Z,6.50
2023-03-29T21:44:53.108Z,6.78
2023-03-29T21:47:20.637Z,7.07
2023-03-29T21:49:47.913Z,6.90
2023-03-29T21:52:15.214Z,7.07
2023-03-29T21:54:42.513Z,6.28
2023-03-29T21:57:09.782Z,5.75
2023-03-29T21:59:37.057Z,6.50
2023-03-29T22:02:04.428Z,6.38
2023-03-29T22:04:37.220Z,6.95
2023-03-29T22:07:06.208Z,7.80
2023-03-29T22:09:35.341Z,6.65
2023-03-29T22:12:04.051Z,6.82
2023-03-29T22:14:35.219Z,8.35
2023-03-29T22:17:06.513Z,7.22
2023-03-29T22:19:39.393Z,6.93
2023-03-29T22:22:13.901Z,7.65
2023-03-29T22:24:42.438Z,8.07
2023-03-29T22:27:10.816Z,7.70
2023-03-29T22:29:38.169Z,7.40
2023-03-29T22:32:06.190Z,6.97
2023-03-29T22:34:33.727Z,6.97
2023-03-29T22:37:01.173Z,7.78
2023-03-29T22:39:28.826Z,7.35
2023-03-29T22:41:56.220Z,7.47
2023-03-29T22:44:23.527Z,8.30
2023-03-29T22:46:51.194Z,8.15
2023-03-29T22:49:18.471Z,8.30
2023-03-29T22:51:46.209Z,8.20
2023-03-29T22:54:13.757Z,7.25
2023-03-29T22:56:41.515Z,8.95
2023-03-29T22:59:08.845Z,7.85
2023-03-29T23:01:36.111Z,7.97
2023-03-29T23:04:04.528Z,8.93
2023-03-29T23:06:31.794Z,8.93
2023-03-29T23:08:59.018Z,8.55
2023-03-29T23:11:26.731Z,8.85
2023-03-29T23:13:54.257Z,8.27
2023-03-29T23:16:21.729Z,8.60
2023-03-29T23:18:49.337Z,9.38
2023-03-29T23:21:16.917Z,9.50
2023-03-29T23:23:44.971Z,10.32
2023-03-29T23:26:12.290Z,9.00
2023-03-29T23:28:41.159Z,10.93
2023-03-29T23:31:11.725Z,11.38
2023-03-29T23:33:41.392Z,11.95
2023-03-29T23:36:11.909Z,11.55
2023-03-29T23:38:40.024Z,9.77
2023-03-29T23:41:10.543Z,11.10
2023-03-29T23:43:40.765Z,11.23
2023-03-29T23:46:10.830Z,11.45
2023-03-29T23:48:38.861Z,10.50
2023-03-29T23:51:08.228Z,11.73
2023-03-29T23:53:35.478Z,10.23
2023-03-29T23:56:04.144Z,9.80
2023-03-29T23:58:33.902Z,11.18
